createdAt,value
2022-08-17T00:02:26.485Z,18.70
2022-08-17T00:04:55.495Z,18.70
2022-08-17T00:07:22.895Z,18.70
2022-08-17T00:09:49.923Z,18.60
2022-08-17T00:12:51.508Z,18.60
2022-08-17T00:15:08.206Z,18.60
2022-08-17T00:17:38.329Z,18.70
2022-08-17T00:20:06.138Z,18.70
2022-08-17T00:22:36.337Z,18.70
2022-08-17T00:25:10.033Z,18.70
2022-08-17T00:27:37.045Z,18.70
2022-08-17T00:30:09.012Z,18.70
2022-08-17T00:33:12.686Z,18.70
2022-08-17T00:35:28.887Z,18.70
2022-08-17T00:37:55.825Z,18.60
2022-08-17T00:40:24.755Z,18.60
2022-08-17T00:42:53.286Z,18.50
2022-08-17T00:45:22.601Z,18.50
2022-08-17T00:47:49.614Z,18.50
2022-08-17T00:50:19.617Z,18.50
2022-08-17T00:52:55.892Z,18.50
2022-08-17T00:55:24.762Z,18.50
2022-08-17T00:57:56.693Z,18.50
2022-08-17T01:00:29.863Z,18.50
2022-08-17T01:03:06.321Z,18.50
2022-08-17T01:05:38.349Z,18.50
2022-08-17T01:08:13.321Z,18.50
2022-08-17T01:10:58.444Z,18.50
2022-08-17T01:13:41.179Z,18.50
2022-08-17T01:16:25.777Z,18.50
2022-08-17T01:18:56.888Z,18.50
2022-08-17T01:21:31.689Z,18.40
2022-08-17T01:23:59.450Z,18.30
2022-08-17T01:26:27.271Z,18.20
2022-08-17T01:28:55.892Z,18.20
2022-08-17T01:31:28.773Z,18.20
2022-08-17T01:33:56.946Z,18.10
2022-08-17T01:36:23.816Z,18.00
2022-08-17T01:38:50.999Z,18.00
2022-08-17T01:41:21.493Z,18.00
2022-08-17T01:43:53.801Z,17.90
2022-08-17T01:46:24.262Z,17.90
2022-08-17T01:48:51.619Z,17.90
2022-08-17T01:51:20.041Z,17.90
2022-08-17T01:53:51.391Z,17.90
2022-08-17T01:56:21.431Z,17.90
2022-08-17T01:58:49.245Z,17.80
2022-08-17T02:01:18.920Z,17.90
2022-08-17T02:03:58.999Z,17.90
2022-08-17T02:06:52.916Z,17.90
2022-08-17T02:09:25.405Z,17.90
2022-08-17T02:11:56.349Z,17.80
2022-08-17T02:14:24.884Z,17.80
2022-08-17T02:16:52.950Z,17.80
2022-08-17T02:19:20.380Z,17.80
2022-08-17T02:21:50.260Z,17.90
2022-08-17T02:25:00.490Z,17.80
2022-08-17T02:27:11.814Z,17.80
2022-08-17T02:29:38.917Z,17.70
2022-08-17T02:32:06.086Z,17.80
2022-08-17T02:34:33.232Z,17.80
2022-08-17T02:37:00.485Z,17.80
2022-08-17T02:39:27.408Z,17.80
2022-08-17T02:42:02.397Z,17.80
2022-08-17T02:44:38.962Z,17.80
2022-08-17T02:47:09.620Z,17.80
2022-08-17T02:49:37.173Z,17.80
2022-08-17T02:52:08.013Z,17.80
2022-08-17T02:54:41.701Z,17.80
2022-08-17T02:57:10.426Z,17.80
2022-08-17T02:59:46.785Z,17.70
2022-08-17T03:02:15.848Z,17.80
2022-08-17T03:04:43.032Z,17.80
2022-08-17T03:07:09.925Z,17.70
2022-08-17T03:09:36.819Z,17.70
2022-08-17T03:12:09.390Z,17.60
2022-08-17T03:14:41.687Z,17.40
2022-08-17T03:17:17.092Z,17.40
2022-08-17T03:19:44.976Z,17.40
2022-08-17T03:22:34.745Z,17.30
2022-08-17T03:24:59.048Z,17.40
2022-08-17T03:27:26.656Z,17.30
2022-08-17T03:29:54.386Z,17.30
2022-08-17T03:32:21.429Z,17.30
2022-08-17T03:34:48.659Z,17.30
2022-08-17T03:37:15.599Z,17.30
2022-08-17T03:39:42.982Z,17.30
2022-08-17T03:42:31.365Z,17.30
2022-08-17T03:45:01.296Z,17.30
2022-08-17T03:47:47.091Z,17.30
2022-08-17T03:50:33.511Z,17.30
2022-08-17T03:53:22.692Z,17.30
2022-08-17T03:56:08.670Z,17.30
2022-08-17T03:58:37.654Z,17.30
2022-08-17T04:01:06.938Z,17.40
2022-08-17T04:03:34.106Z,17.50
2022-08-17T04:06:02.264Z,17.50
2022-08-17T04:08:30.073Z,17.50
2022-08-17T04:10:57.849Z,17.60
2022-08-17T04:13:25.671Z,17.60
2022-08-17T04:15:53.110Z,17.60
2022-08-17T04:18:20.183Z,17.70
2022-08-17T04:20:47.283Z,17.70
2022-08-17T04:23:17.625Z,17.80
2022-08-17T04:25:49.054Z,17.80
2022-08-17T04:28:18.671Z,17.90
2022-08-17T04:30:47.513Z,18.00
2022-08-17T04:33:25.399Z,18.10
2022-08-17T04:35:58.487Z,18.30
2022-08-17T04:38:26.494Z,18.40
2022-08-17T04:41:12.982Z,18.50
2022-08-17T04:43:42.150Z,18.70
2022-08-17T04:46:16.353Z,18.80
2022-08-17T04:48:45.798Z,18.80
2022-08-17T04:51:20.099Z,18.80
2022-08-17T04:53:54.111Z,18.90
2022-08-17T04:56:23.758Z,18.90
2022-08-17T04:58:53.006Z,19.10
2022-08-17T05:01:24.117Z,19.20
2022-08-17T05:03:59.046Z,19.30
2022-08-17T05:06:27.949Z,19.50
2022-08-17T05:08:57.068Z,19.60
2022-08-17T05:11:26.148Z,19.70
2022-08-17T05:13:54.444Z,19.90
2022-08-17T05:16:23.426Z,20.10
2022-08-17T05:18:50.938Z,20.20
2022-08-17T05:21:18.772Z,20.40
2022-08-17T05:23:49.197Z,20.60
2022-08-17T05:26:26.458Z,20.80
2022-08-17T05:29:00.348Z,21.00
2022-08-17T05:31:30.175Z,21.10
2022-08-17T05:33:58.058Z,21.20
2022-08-17T05:36:43.483Z,21.40
2022-08-17T05:39:15.613Z,21.60
2022-08-17T05:41:44.364Z,21.70
2022-08-17T05:44:11.249Z,22.00
2022-08-17T05:46:41.485Z,22.10
2022-08-17T05:49:09.536Z,22.30
2022-08-17T05:52:20.110Z,22.40
2022-08-17T05:55:21.007Z,22.60
2022-08-17T05:58:05.904Z,22.80
2022-08-17T06:00:50.773Z,23.00
2022-08-17T06:03:30.800Z,23.30
2022-08-17T06:06:23.235Z,23.60
2022-08-17T06:09:10.635Z,24.10
2022-08-17T06:11:44.694Z,24.80
2022-08-17T06:14:34.765Z,25.50
2022-08-17T06:17:13.655Z,26.20
2022-08-17T06:19:55.705Z,26.80
2022-08-17T06:22:29.604Z,27.30
2022-08-17T06:25:14.777Z,27.80
2022-08-17T06:27:48.818Z,28.50
2022-08-17T06:30:27.083Z,28.90
2022-08-17T06:32:59.617Z,29.20
2022-08-17T06:35:41.044Z,29.10
2022-08-17T06:38:49.968Z,29.20
2022-08-17T06:41:37.808Z,29.50
2022-08-17T06:44:50.154Z,30.10
2022-08-17T06:47:12.560Z,30.40
2022-08-17T06:49:54.673Z,30.50
2022-08-17T06:52:46.047Z,30.80
2022-08-17T06:55:27.562Z,31.10
2022-08-17T06:58:00.111Z,31.60
2022-08-17T07:00:40.741Z,31.90
2022-08-17T07:03:37.791Z,32.00
2022-08-17T07:06:08.264Z,32.90
2022-08-17T07:09:05.384Z,33.60
2022-08-17T07:11:47.219Z,34.00
2022-08-17T07:14:25.817Z,34.20
2022-08-17T07:16:56.153Z,35.00
2022-08-17T07:19:31.547Z,35.60
2022-08-17T07:22:14.008Z,36.00
2022-08-17T07:25:02.972Z,35.70
2022-08-17T07:27:35.469Z,36.10
2022-08-17T07:30:10.362Z,36.30
2022-08-17T07:32:47.607Z,36.70
2022-08-17T07:35:31.321Z,36.90
2022-08-17T07:38:24.973Z,37.60
2022-08-17T07:41:02.839Z,38.50
2022-08-17T07:43:41.117Z,38.90
2022-08-17T07:46:30.026Z,38.30
2022-08-17T07:49:03.435Z,38.90
2022-08-17T07:51:35.409Z,40.00
2022-08-17T07:54:22.594Z,40.60
2022-08-17T07:56:57.267Z,40.90
2022-08-17T07:59:28.680Z,41.40
2022-08-17T08:02:03.727Z,41.00
2022-08-17T08:04:58.865Z,40.20
2022-08-17T08:07:38.977Z,40.50
2022-08-17T08:10:14.445Z,40.40
2022-08-17T08:12:48.094Z,40.20
2022-08-17T08:15:25.707Z,39.60
2022-08-17T08:17:54.462Z,40.20
2022-08-17T08:20:52.412Z,40.50
2022-08-17T08:23:52.673Z,41.60
2022-08-17T08:26:30.388Z,41.10
2022-08-17T08:29:08.339Z,41.30
2022-08-17T08:31:45.174Z,41.30
2022-08-17T08:34:47.380Z,42.20
2022-08-17T08:38:07.490Z,42.00
2022-08-17T08:40:49.557Z,39.90
2022-08-17T08:43:40.377Z,40.60
2022-08-17T08:46:47.079Z,40.90
2022-08-17T08:50:04.495Z,41.70
2022-08-17T08:53:12.407Z,41.80
2022-08-17T08:55:51.545Z,42.70
2022-08-17T08:58:41.685Z,43.30
2022-08-17T09:01:20.355Z,44.00
2022-08-17T09:04:21.535Z,44.40
2022-08-17T09:07:25.521Z,44.80
2022-08-17T09:10:06.251Z,45.70
2022-08-17T09:12:33.309Z,45.50
2022-08-17T09:15:17.756Z,45.30
2022-08-17T09:19:01.293Z,44.10
2022-08-17T09:21:04.023Z,44.50
2022-08-17T09:23:49.506Z,44.90
2022-08-17T09:26:30.521Z,45.70
2022-08-17T09:29:03.243Z,46.30
2022-08-17T09:31:49.216Z,47.00
2022-08-17T09:34:29.619Z,47.40
2022-08-17T09:37:30.057Z,47.70
2022-08-17T09:40:13.816Z,47.50
2022-08-17T09:42:52.460Z,47.40
2022-08-17T09:45:29.759Z,47.50
2022-08-17T09:48:11.164Z,47.80
2022-08-17T09:51:13.644Z,47.60
2022-08-17T09:53:41.404Z,47.70
2022-08-17T09:56:43.776Z,48.00
2022-08-17T09:59:44.839Z,48.30
2022-08-17T10:02:33.785Z,47.60
2022-08-17T10:05:06.810Z,46.70
2022-08-17T10:07:46.580Z,45.90
2022-08-17T10:10:21.066Z,46.10
2022-08-17T10:12:57.634Z,45.00
2022-08-17T10:15:52.359Z,41.90
2022-08-17T10:18:38.256Z,39.10
2022-08-17T10:21:30.433Z,37.00
2022-08-17T10:24:22.011Z,35.40
2022-08-17T10:26:56.064Z,34.50
2022-08-17T10:29:48.400Z,33.80
2022-08-17T10:32:56.881Z,33.40
2022-08-17T10:35:30.144Z,32.70
2022-08-17T10:38:21.557Z,32.10
2022-08-17T10:41:01.508Z,31.90
2022-08-17T10:43:57.803Z,31.60
2022-08-17T10:46:52.359Z,31.40
2022-08-17T10:49:21.123Z,31.40
2022-08-17T10:52:00.561Z,31.60
2022-08-17T10:54:47.682Z,31.80
2022-08-17T10:57:29.846Z,31.70
2022-08-17T10:59:58.730Z,31.80
2022-08-17T11:02:31.498Z,32.00
2022-08-17T11:05:08.316Z,32.20
2022-08-17T11:08:05.279Z,32.30
2022-08-17T11:10:53.256Z,32.40
2022-08-17T11:13:54.627Z,32.80
2022-08-17T11:16:37.654Z,32.80
2022-08-17T11:19:43.486Z,32.80
2022-08-17T11:22:34.064Z,32.50
2022-08-17T11:25:14.251Z,32.50
2022-08-17T11:27:42.677Z,32.30
2022-08-17T11:30:35.955Z,32.10
2022-08-17T11:33:29.144Z,31.80
2022-08-17T11:36:12.477Z,31.60
2022-08-17T11:39:02.448Z,31.60
2022-08-17T11:42:07.274Z,31.60
2022-08-17T11:44:59.597Z,31.70
2022-08-17T11:48:27.901Z,31.90
2022-08-17T11:51:25.873Z,31.90
2022-08-17T11:54:21.470Z,32.10
2022-08-17T11:56:49.807Z,32.30
2022-08-17T11:59:36.425Z,32.50
2022-08-17T12:02:29.826Z,32.60
2022-08-17T12:05:27.531Z,32.80
2022-08-17T12:08:21.546Z,32.80
2022-08-17T12:11:16.613Z,32.50
2022-08-17T12:14:04.635Z,32.40
2022-08-17T12:16:31.781Z,32.40
2022-08-17T12:19:02.378Z,32.50
2022-08-17T12:21:37.399Z,32.70
2022-08-17T12:24:31.872Z,32.70
2022-08-17T12:27:02.055Z,32.60
2022-08-17T12:29:39.021Z,32.60
2022-08-17T12:32:12.881Z,32.60
2022-08-17T12:34:42.650Z,32.60
2022-08-17T12:37:20.871Z,32.50
2022-08-17T12:40:08.391Z,32.50
2022-08-17T12:42:39.420Z,32.40
2022-08-17T12:45:21.159Z,32.20
2022-08-17T12:47:48.140Z,32.20
2022-08-17T12:50:29.499Z,32.30
2022-08-17T12:53:01.742Z,32.30
2022-08-17T12:55:35.678Z,32.40
2022-08-17T12:58:02.810Z,32.50
2022-08-17T13:00:47.748Z,32.70
2022-08-17T13:03:21.866Z,32.90
2022-08-17T13:06:02.470Z,33.00
2022-08-17T13:08:43.932Z,33.40
2022-08-17T13:11:13.838Z,33.90
2022-08-17T13:13:43.796Z,34.20
2022-08-17T13:16:14.492Z,34.40
2022-08-17T13:18:49.622Z,34.40
2022-08-17T13:21:19.373Z,34.50
2022-08-17T13:24:11.071Z,34.50
2022-08-17T13:26:42.594Z,34.40
2022-08-17T13:29:24.659Z,34.20
2022-08-17T13:31:56.621Z,33.90
2022-08-17T13:35:15.055Z,33.70
2022-08-17T13:37:42.593Z,33.40
2022-08-17T13:40:10.207Z,33.00
2022-08-17T13:42:52.110Z,32.70
2022-08-17T13:45:36.578Z,32.20
2022-08-17T13:48:13.682Z,32.00
2022-08-17T13:50:47.939Z,31.70
2022-08-17T13:53:23.193Z,31.60
2022-08-17T13:56:37.968Z,31.50
2022-08-17T13:59:36.370Z,31.40
2022-08-17T14:02:16.096Z,31.00
2022-08-17T14:04:44.156Z,30.70
2022-08-17T14:07:15.356Z,30.50
2022-08-17T14:10:05.863Z,30.30
2022-08-17T14:12:35.550Z,30.30
2022-08-17T14:15:03.029Z,30.10
2022-08-17T14:17:36.312Z,30.10
2022-08-17T14:20:09.836Z,30.20
2022-08-17T14:22:39.737Z,30.40
2022-08-17T14:25:08.676Z,31.40
2022-08-17T14:27:51.814Z,31.30
2022-08-17T14:30:22.727Z,30.70
2022-08-17T14:32:51.880Z,30.20
2022-08-17T14:35:22.263Z,29.70
2022-08-17T14:37:50.830Z,29.30
2022-08-17T14:40:20.824Z,29.10
2022-08-17T14:42:48.142Z,29.90
2022-08-17T14:45:31.926Z,30.80
2022-08-17T14:48:07.589Z,31.40
2022-08-17T14:50:38.899Z,31.20
2022-08-17T14:53:07.378Z,31.00
2022-08-17T14:55:35.537Z,30.50
2022-08-17T14:58:04.034Z,29.90
2022-08-17T15:00:31.506Z,29.80
2022-08-17T15:03:00.216Z,30.40
2022-08-17T15:05:33.932Z,31.20
2022-08-17T15:08:02.207Z,31.60
2022-08-17T15:10:30.701Z,31.80
2022-08-17T15:12:58.297Z,31.60
2022-08-17T15:15:25.800Z,31.20
2022-08-17T15:17:53.390Z,30.70
2022-08-17T15:20:24.688Z,30.30
2022-08-17T15:22:59.032Z,29.80
2022-08-17T15:25:29.185Z,29.30
2022-08-17T15:27:56.852Z,28.80
2022-08-17T15:30:25.888Z,28.40
2022-08-17T15:32:55.282Z,28.20
2022-08-17T15:35:29.477Z,27.90
2022-08-17T15:38:03.548Z,27.70
2022-08-17T15:40:31.792Z,27.60
2022-08-17T15:43:27.864Z,27.50
2022-08-17T15:46:15.376Z,27.50
2022-08-17T15:48:44.777Z,27.50
2022-08-17T15:51:20.973Z,27.60
2022-08-17T15:53:50.990Z,27.80
2022-08-17T15:56:18.377Z,28.00
2022-08-17T15:58:46.889Z,28.10
2022-08-17T16:01:27.853Z,28.30
2022-08-17T16:04:07.065Z,28.40
2022-08-17T16:06:42.363Z,28.50
2022-08-17T16:09:09.228Z,28.50
2022-08-17T16:11:36.532Z,28.50
2022-08-17T16:14:04.963Z,28.60
2022-08-17T16:16:32.883Z,28.50
2022-08-17T16:18:59.805Z,28.50
2022-08-17T16:21:29.511Z,28.50
2022-08-17T16:24:04.659Z,28.40
2022-08-17T16:26:33.482Z,28.30
2022-08-17T16:29:02.404Z,28.20
2022-08-17T16:31:29.643Z,28.20
2022-08-17T16:34:15.764Z,28.10
2022-08-17T16:36:54.956Z,28.10
2022-08-17T16:39:26.243Z,28.00
2022-08-17T16:41:53.318Z,28.00
2022-08-17T16:44:21.405Z,28.00
2022-08-17T16:46:49.171Z,28.00
2022-08-17T16:49:35.574Z,27.90
2022-08-17T16:52:10.388Z,27.80
2022-08-17T16:54:41.883Z,27.70
2022-08-17T16:57:14.478Z,27.60
2022-08-17T16:59:44.998Z,27.50
2022-08-17T17:02:16.908Z,27.40
2022-08-17T17:04:54.259Z,27.30
2022-08-17T17:07:46.175Z,27.20
2022-08-17T17:10:18.398Z,27.10
2022-08-17T17:13:01.886Z,27.00
2022-08-17T17:15:46.489Z,27.00
2022-08-17T17:18:15.788Z,26.90
2022-08-17T17:20:55.461Z,26.80
2022-08-17T17:23:28.379Z,26.70
2022-08-17T17:26:13.762Z,26.60
2022-08-17T17:29:47.427Z,26.40
2022-08-17T17:32:17.266Z,26.40
2022-08-17T17:34:50.871Z,26.30
2022-08-17T17:37:24.438Z,26.20
2022-08-17T17:39:55.739Z,26.20
2022-08-17T17:42:28.300Z,26.20
2022-08-17T17:45:18.814Z,26.10
2022-08-17T17:47:47.042Z,26.00
2022-08-17T17:50:17.661Z,25.90
2022-08-17T17:52:56.519Z,25.80
2022-08-17T17:55:29.997Z,25.70
2022-08-17T17:58:23.858Z,25.60
2022-08-17T18:00:56.773Z,25.50
2022-08-17T18:03:40.610Z,25.50
2022-08-17T18:06:22.478Z,25.40
2022-08-17T18:09:03.719Z,25.30
2022-08-17T18:11:51.553Z,25.20
2022-08-17T18:14:36.395Z,25.20
2022-08-17T18:17:05.835Z,25.10
2022-08-17T18:19:33.204Z,25.00
2022-08-17T18:22:14.226Z,25.00
2022-08-17T18:24:45.523Z,24.80
2022-08-17T18:27:30.590Z,24.70
2022-08-17T18:30:04.577Z,24.50
2022-08-17T18:32:42.156Z,24.50
2022-08-17T18:35:09.455Z,24.40
2022-08-17T18:37:41.137Z,24.20
2022-08-17T18:40:17.039Z,24.20
2022-08-17T18:42:55.028Z,24.20
2022-08-17T18:45:38.190Z,24.10
2022-08-17T18:48:27.569Z,24.10
2022-08-17T18:50:58.954Z,24.00
2022-08-17T18:54:14.239Z,23.90
2022-08-17T18:56:57.071Z,23.80
2022-08-17T18:59:44.282Z,23.80
2022-08-17T19:02:37.311Z,23.70
2022-08-17T19:05:21.071Z,23.70
2022-08-17T19:07:48.135Z,23.80
2022-08-17T19:10:31.679Z,23.80
2022-08-17T19:13:12.577Z,23.80
2022-08-17T19:16:13.161Z,23.90
2022-08-17T19:18:51.051Z,23.80
2022-08-17T19:21:33.332Z,23.80
2022-08-17T19:24:13.257Z,23.80
2022-08-17T19:26:54.600Z,23.80
2022-08-17T19:29:46.683Z,23.70
2022-08-17T19:32:20.332Z,23.70
2022-08-17T19:34:48.012Z,23.60
2022-08-17T19:37:34.734Z,23.50
2022-08-17T19:40:09.126Z,23.40
2022-08-17T19:42:52.957Z,23.30
2022-08-17T19:45:40.050Z,23.20
2022-08-17T19:48:25.984Z,23.10
2022-08-17T19:51:09.602Z,23.00
2022-08-17T19:54:04.770Z,23.00
2022-08-17T19:57:01.660Z,22.90
2022-08-17T19:59:48.992Z,22.90
2022-08-17T20:02:57.269Z,22.80
2022-08-17T20:06:01.322Z,22.70
2022-08-17T20:08:29.190Z,22.60
2022-08-17T20:11:07.359Z,22.50
2022-08-17T20:13:49.065Z,22.50
2022-08-17T20:16:18.376Z,22.40
2022-08-17T20:19:05.980Z,22.30
2022-08-17T20:21:42.806Z,22.30
2022-08-17T20:24:31.570Z,22.10
2022-08-17T20:27:11.074Z,22.10
2022-08-17T20:29:59.725Z,22.10
2022-08-17T20:32:35.442Z,22.00
2022-08-17T20:35:18.097Z,21.90
2022-08-17T20:37:53.834Z,21.90
2022-08-17T20:40:25.891Z,21.80
2022-08-17T20:42:53.382Z,21.80
2022-08-17T20:45:26.263Z,21.80
2022-08-17T20:48:33.362Z,21.70
2022-08-17T20:50:59.007Z,21.70
2022-08-17T20:53:47.744Z,21.60
2022-08-17T20:56:48.887Z,21.50
2022-08-17T20:59:26.117Z,21.40
2022-08-17T21:02:18.464Z,21.40
2022-08-17T21:04:52.958Z,21.40
2022-08-17T21:07:29.130Z,21.40
2022-08-17T21:10:15.983Z,21.30
2022-08-17T21:13:22.024Z,21.30
2022-08-17T21:15:54.675Z,21.20
2022-08-17T21:18:38.650Z,21.20
2022-08-17T21:21:34.073Z,21.10
2022-08-17T21:24:26.274Z,21.10
2022-08-17T21:27:25.466Z,21.00
2022-08-17T21:30:24.581Z,21.00
2022-08-17T21:33:16.687Z,21.00
2022-08-17T21:35:59.509Z,21.00
2022-08-17T21:38:37.069Z,20.80
2022-08-17T21:41:04.973Z,20.90
2022-08-17T21:43:37.509Z,20.80
2022-08-17T21:46:21.920Z,20.80
2022-08-17T21:48:54.379Z,20.70
2022-08-17T21:51:28.751Z,20.70
2022-08-17T21:54:03.047Z,20.70
2022-08-17T21:56:34.256Z,20.60
2022-08-17T21:59:32.931Z,20.60
2022-08-17T22:02:03.216Z,20.50
2022-08-17T22:04:39.401Z,20.50
2022-08-17T22:07:11.697Z,20.50
2022-08-17T22:09:45.733Z,20.40
2022-08-17T22:12:17.933Z,20.40
2022-08-17T22:14:56.726Z,20.30
2022-08-17T22:17:36.509Z,20.30
2022-08-17T22:20:14.931Z,20.30
2022-08-17T22:23:20.447Z,20.20
2022-08-17T22:26:09.586Z,20.30
2022-08-17T22:28:46.979Z,20.30
2022-08-17T22:31:21.579Z,20.40
2022-08-17T22:33:53.029Z,20.30
2022-08-17T22:36:38.999Z,20.30
2022-08-17T22:39:08.697Z,20.20
2022-08-17T22:41:47.072Z,20.20
2022-08-17T22:44:44.796Z,20.20
2022-08-17T22:47:14.881Z,20.10
2022-08-17T22:49:57.888Z,20.10
2022-08-17T22:53:14.742Z,20.00
2022-08-17T22:56:09.656Z,20.10
2022-08-17T22:59:02.205Z,20.00
2022-08-17T23:01:35.091Z,20.00
2022-08-17T23:04:04.073Z,20.00
2022-08-17T23:06:35.144Z,20.00
2022-08-17T23:09:04.629Z,19.90
2022-08-17T23:11:49.414Z,20.00
2022-08-17T23:14:19.955Z,20.00
2022-08-17T23:16:48.702Z,20.00
2022-08-17T23:19:20.942Z,19.90
2022-08-17T23:21:53.809Z,19.90
2022-08-17T23:24:23.992Z,20.00
2022-08-17T23:26:51.139Z,20.00
2022-08-17T23:29:22.563Z,19.90
2022-08-17T23:31:51.145Z,19.90
2022-08-17T23:34:19.322Z,19.90
2022-08-17T23:36:52.259Z,19.90
2022-08-17T23:39:24.543Z,19.80
2022-08-17T23:41:57.409Z,19.80
2022-08-17T23:44:25.311Z,19.80
2022-08-17T23:46:53.734Z,19.80
2022-08-17T23:49:20.652Z,19.80
2022-08-17T23:51:49.145Z,19.80
2022-08-17T23:54:21.286Z,19.80
2022-08-17T23:56:48.658Z,19.80
2022-08-17T23:59:22.883Z,19.80
